sensor_id;sensor_type;location;lat;lon;timestamp;pressure;altitude;pressure_sealevel;temperature;humidity
41234;BME280;26968;42.686;23.352;2023-02-28T00:00:49;95698.38;;;7.87;84.16
41234;BME280;26968;42.686;23.352;2023-02-28T00:03:14;95703.03;;;7.80;85.06
41234;BME280;26968;42.686;23.352;2023-02-28T00:05:40;95686.56;;;7.73;84.30
41234;BME280;26968;42.686;23.352;2023-02-28T00:08:08;95670.81;;;7.61;83.99
41234;BME280;26968;42.686;23.352;2023-02-28T00:10:34;95654.09;;;7.56;84.12
41234;BME280;26968;42.686;23.352;2023-02-28T00:13:04;95684.66;;;7.68;84.21
41234;BME280;26968;42.686;23.352;2023-02-28T00:15:30;95696.94;;;7.80;84.42
41234;BME280;26968;42.686;23.352;2023-02-28T00:17:56;95717.47;;;7.94;84.35
41234;BME280;26968;42.686;23.352;2023-02-28T00:20:22;95725.28;;;7.84;83.81
41234;BME280;26968;42.686;23.352;2023-02-28T00:22:49;95724.34;;;7.95;84.34
41234;BME280;26968;42.686;23.352;2023-02-28T00:25:18;95590.91;;;7.11;84.00
41234;BME280;26968;42.686;23.352;2023-02-28T00:27:44;95668.84;;;7.52;84.20
41234;BME280;26968;42.686;23.352;2023-02-28T00:30:15;95675.16;;;7.51;83.43
41234;BME280;26968;42.686;23.352;2023-02-28T00:32:41;95708.53;;;7.79;83.81
41234;BME280;26968;42.686;23.352;2023-02-28T00:35:08;95747.59;;;7.93;84.24
41234;BME280;26968;42.686;23.352;2023-02-28T00:37:34;95700.63;;;7.79;83.59
41234;BME280;26968;42.686;23.352;2023-02-28T00:39:59;95727.19;;;7.89;84.01
41234;BME280;26968;42.686;23.352;2023-02-28T00:42:25;95701.59;;;7.72;83.46
41234;BME280;26968;42.686;23.352;2023-02-28T00:44:50;95706.00;;;7.84;83.53
41234;BME280;26968;42.686;23.352;2023-02-28T00:47:16;95639.66;;;7.42;83.72
41234;BME280;26968;42.686;23.352;2023-02-28T00:49:41;95632.06;;;7.28;83.66
41234;BME280;26968;42.686;23.352;2023-02-28T00:52:07;95578.13;;;7.03;83.65
41234;BME280;26968;42.686;23.352;2023-02-28T00:54:32;95674.69;;;7.54;82.95
41234;BME280;26968;42.686;23.352;2023-02-28T00:56:58;95661.00;;;7.40;83.09
41234;BME280;26968;42.686;23.352;2023-02-28T00:59:24;95596.69;;;7.08;82.54
41234;BME280;26968;42.686;23.352;2023-02-28T01:01:49;95667.56;;;7.54;82.25
41234;BME280;26968;42.686;23.352;2023-02-28T01:04:15;95678.19;;;7.43;82.36
41234;BME280;26968;42.686;23.352;2023-02-28T01:06:41;95682.66;;;7.59;81.59
41234;BME280;26968;42.686;23.352;2023-02-28T01:09:07;95669.81;;;7.29;81.87
41234;BME280;26968;42.686;23.352;2023-02-28T01:11:34;95723.53;;;7.56;82.08
41234;BME280;26968;42.686;23.352;2023-02-28T01:13:59;95646.41;;;7.16;82.37
41234;BME280;26968;42.686;23.352;2023-02-28T01:16:25;95684.09;;;7.50;82.52
41234;BME280;26968;42.686;23.352;2023-02-28T01:18:51;95675.97;;;7.34;81.26
41234;BME280;26968;42.686;23.352;2023-02-28T01:21:19;95624.16;;;6.95;81.39
41234;BME280;26968;42.686;23.352;2023-02-28T01:23:45;95725.06;;;7.52;81.62
41234;BME280;26968;42.686;23.352;2023-02-28T01:28:38;95681.97;;;7.30;82.44
41234;BME280;26968;42.686;23.352;2023-02-28T01:31:04;95713.75;;;7.57;82.44
41234;BME280;26968;42.686;23.352;2023-02-28T01:33:29;95679.72;;;7.39;82.35
41234;BME280;26968;42.686;23.352;2023-02-28T01:36:06;95710.88;;;7.58;82.73
41234;BME280;26968;42.686;23.352;2023-02-28T01:38:32;95711.56;;;7.32;84.01
41234;BME280;26968;42.686;23.352;2023-02-28T01:40:58;95663.88;;;6.88;82.61
41234;BME280;26968;42.686;23.352;2023-02-28T01:43:26;95709.88;;;7.09;84.05
41234;BME280;26968;42.686;23.352;2023-02-28T01:45:54;95703.84;;;6.97;83.85
41234;BME280;26968;42.686;23.352;2023-02-28T01:48:23;95718.25;;;7.06;84.06
41234;BME280;26968;42.686;23.352;2023-02-28T01:50:51;95722.94;;;7.04;83.76
41234;BME280;26968;42.686;23.352;2023-02-28T01:53:21;95647.28;;;6.59;84.05
41234;BME280;26968;42.686;23.352;2023-02-28T01:55:50;95646.13;;;6.39;84.32
41234;BME280;26968;42.686;23.352;2023-02-28T01:58:17;95637.09;;;6.63;84.37
41234;BME280;26968;42.686;23.352;2023-02-28T02:00:43;95714.19;;;7.15;83.87
41234;BME280;26968;42.686;23.352;2023-02-28T02:03:12;95722.97;;;7.21;83.79
41234;BME280;26968;42.686;23.352;2023-02-28T02:05:39;95674.56;;;6.82;83.84
41234;BME280;26968;42.686;23.352;2023-02-28T02:08:11;95726.38;;;7.05;84.10
41234;BME280;26968;42.686;23.352;2023-02-28T02:36:28;95602.22;;;6.44;82.75
41234;BME280;26968;42.686;23.352;2023-02-28T02:39:04;95684.75;;;7.07;82.60
41234;BME280;26968;42.686;23.352;2023-02-28T02:41:39;95670.66;;;6.84;82.78
41234;BME280;26968;42.686;23.352;2023-02-28T02:44:18;95677.63;;;6.90;83.61
41234;BME280;26968;42.686;23.352;2023-02-28T02:46:48;95730.56;;;7.34;83.45
41234;BME280;26968;42.686;23.352;2023-02-28T02:49:19;95711.03;;;7.18;83.72
41234;BME280;26968;42.686;23.352;2023-02-28T02:51:47;95676.78;;;7.02;83.79
41234;BME280;26968;42.686;23.352;2023-02-28T02:54:28;95713.34;;;6.98;83.53
41234;BME280;26968;42.686;23.352;2023-02-28T02:56:58;95730.00;;;7.15;84.00
41234;BME280;26968;42.686;23.352;2023-02-28T02:59:26;95724.63;;;7.10;84.25
41234;BME280;26968;42.686;23.352;2023-02-28T03:01:55;95715.69;;;7.11;83.82
41234;BME280;26968;42.686;23.352;2023-02-28T03:04:25;95724.22;;;7.18;83.80
41234;BME280;26968;42.686;23.352;2023-02-28T03:06:53;95710.75;;;7.15;83.49
41234;BME280;26968;42.686;23.352;2023-02-28T03:09:24;95751.78;;;7.39;83.79
41234;BME280;26968;42.686;23.352;2023-02-28T03:11:52;95715.84;;;7.21;83.42
41234;BME280;26968;42.686;23.352;2023-02-28T03:14:51;95653.81;;;6.85;83.16
41234;BME280;26968;42.686;23.352;2023-02-28T03:19:50;95763.13;;;7.56;82.75
41234;BME280;26968;42.686;23.352;2023-02-28T03:28:05;95691.41;;;7.09;83.45
41234;BME280;26968;42.686;23.352;2023-02-28T03:36:02;95706.97;;;7.11;82.11
41234;BME280;26968;42.686;23.352;2023-02-28T03:38:44;95789.91;;;7.48;82.33
41234;BME280;26968;42.686;23.352;2023-02-28T03:41:19;95769.19;;;7.57;82.60
41234;BME280;26968;42.686;23.352;2023-02-28T03:43:53;95780.09;;;7.60;82.01
41234;BME280;26968;42.686;23.352;2023-02-28T03:46:23;95770.56;;;7.43;82.76
41234;BME280;26968;42.686;23.352;2023-02-28T03:48:55;95714.81;;;7.06;82.42
41234;BME280;26968;42.686;23.352;2023-02-28T03:51:23;95740.63;;;7.20;82.83
41234;BME280;26968;42.686;23.352;2023-02-28T03:54:05;95732.78;;;7.25;82.74
41234;BME280;26968;42.686;23.352;2023-02-28T03:56:45;95692.03;;;7.00;82.57
41234;BME280;26968;42.686;23.352;2023-02-28T03:59:22;95772.63;;;7.41;82.71
41234;BME280;26968;42.686;23.352;2023-02-28T04:01:51;95725.38;;;7.22;82.47
41234;BME280;26968;42.686;23.352;2023-02-28T04:04:17;95789.63;;;7.61;82.72
41234;BME280;26968;42.686;23.352;2023-02-28T04:06:44;95735.09;;;7.05;82.32
41234;BME280;26968;42.686;23.352;2023-02-28T04:09:13;95730.25;;;7.14;82.66
41234;BME280;26968;42.686;23.352;2023-02-28T04:11:41;95665.38;;;6.68;83.00
41234;BME280;26968;42.686;23.352;2023-02-28T04:14:09;95788.25;;;7.59;82.67
41234;BME280;26968;42.686;23.352;2023-02-28T04:16:38;95780.56;;;7.57;83.01
41234;BME280;26968;42.686;23.352;2023-02-28T04:19:05;95766.41;;;7.47;83.09
41234;BME280;26968;42.686;23.352;2023-02-28T04:21:33;95763.03;;;7.51;82.91
41234;BME280;26968;42.686;23.352;2023-02-28T04:23:59;95783.19;;;7.57;83.38
41234;BME280;26968;42.686;23.352;2023-02-28T04:26:33;95712.81;;;7.13;83.40
41234;BME280;26968;42.686;23.352;2023-02-28T04:29:00;95779.75;;;7.57;82.91
41234;BME280;26968;42.686;23.352;2023-02-28T04:31:26;95790.28;;;7.40;83.52
41234;BME280;26968;42.686;23.352;2023-02-28T04:33:51;95731.59;;;7.16;82.78
41234;BME280;26968;42.686;23.352;2023-02-28T04:36:17;95774.88;;;7.32;83.10
41234;BME280;26968;42.686;23.352;2023-02-28T04:38:43;95774.72;;;7.39;83.37
41234;BME280;26968;42.686;23.352;2023-02-28T04:41:10;95774.22;;;7.42;83.64
41234;BME280;26968;42.686;23.352;2023-02-28T04:43:36;95663.19;;;6.65;83.34
41234;BME280;26968;42.686;23.352;2023-02-28T04:46:03;95797.44;;;7.40;83.37
41234;BME280;26968;42.686;23.352;2023-02-28T04:48:30;95723.44;;;6.73;83.27
41234;BME280;26968;42.686;23.352;2023-02-28T04:51:03;95753.72;;;6.98;83.51
41234;BME280;26968;42.686;23.352;2023-02-28T04:53:29;95797.47;;;7.28;82.81
41234;BME280;26968;42.686;23.352;2023-02-28T04:55:56;95810.69;;;7.28;82.69
41234;BME280;26968;42.686;23.352;2023-02-28T04:58:22;95779.69;;;7.07;83.60
41234;BME280;26968;42.686;23.352;2023-02-28T05:00:49;95793.63;;;7.19;83.01
41234;BME280;26968;42.686;23.352;2023-02-28T05:03:15;95807.09;;;7.34;82.68
41234;BME280;26968;42.686;23.352;2023-02-28T05:05:40;95759.44;;;6.95;83.09
41234;BME280;26968;42.686;23.352;2023-02-28T05:08:06;95718.72;;;6.75;83.49
41234;BME280;26968;42.686;23.352;2023-02-28T05:10:31;95801.97;;;7.27;83.05
41234;BME280;26968;42.686;23.352;2023-02-28T05:12:57;95774.66;;;7.05;83.07
41234;BME280;26968;42.686;23.352;2023-02-28T05:15:23;95804.38;;;7.29;82.67
41234;BME280;26968;42.686;23.352;2023-02-28T05:17:49;95763.22;;;7.00;82.56
41234;BME280;26968;42.686;23.352;2023-02-28T05:20:15;95761.84;;;6.97;82.29
41234;BME280;26968;42.686;23.352;2023-02-28T05:22:41;95824.53;;;7.35;82.60
41234;BME280;26968;42.686;23.352;2023-02-28T05:25:10;95829.78;;;7.35;82.55
41234;BME280;26968;42.686;23.352;2023-02-28T05:27:37;95796.41;;;7.12;82.46
41234;BME280;26968;42.686;23.352;2023-02-28T05:30:03;95780.72;;;7.06;82.82
41234;BME280;26968;42.686;23.352;2023-02-28T05:32:29;95816.09;;;7.21;83.26
41234;BME280;26968;42.686;23.352;2023-02-28T05:34:54;95799.84;;;7.13;82.79
41234;BME280;26968;42.686;23.352;2023-02-28T05:37:20;95731.25;;;6.68;83.11
41234;BME280;26968;42.686;23.352;2023-02-28T05:39:46;95846.44;;;7.35;83.11
41234;BME280;26968;42.686;23.352;2023-02-28T05:42:12;95800.88;;;7.12;83.13
41234;BME280;26968;42.686;23.352;2023-02-28T05:44:37;95841.56;;;7.44;82.74
41234;BME280;26968;42.686;23.352;2023-02-28T05:47:02;95841.72;;;7.38;83.08
41234;BME280;26968;42.686;23.352;2023-02-28T05:49:28;95776.97;;;7.02;83.31
41234;BME280;26968;42.686;23.352;2023-02-28T05:51:53;95765.84;;;7.00;83.03
41234;BME280;26968;42.686;23.352;2023-02-28T05:54:19;95852.94;;;7.45;82.91
41234;BME280;26968;42.686;23.352;2023-02-28T05:56:44;95769.75;;;6.97;82.82
41234;BME280;26968;42.686;23.352;2023-02-28T05:59:11;95851.56;;;7.42;83.02
41234;BME280;26968;42.686;23.352;2023-02-28T06:01:43;95862.06;;;7.54;83.03
41234;BME280;26968;42.686;23.352;2023-02-28T06:04:18;95855.50;;;7.56;82.98
41234;BME280;26968;42.686;23.352;2023-02-28T06:06:45;95757.94;;;7.00;83.02
41234;BME280;26968;42.686;23.352;2023-02-28T06:09:11;95676.56;;;6.46;82.48
41234;BME280;26968;42.686;23.352;2023-02-28T06:11:37;95751.91;;;6.87;82.50
41234;BME280;26968;42.686;23.352;2023-02-28T06:14:03;95694.88;;;6.53;82.39
41234;BME280;26968;42.686;23.352;2023-02-28T06:16:30;95834.03;;;7.36;83.42
41234;BME280;26968;42.686;23.352;2023-02-28T06:18:58;95780.72;;;7.06;83.27
41234;BME280;26968;42.686;23.352;2023-02-28T06:21:24;95822.84;;;7.29;83.00
41234;BME280;26968;42.686;23.352;2023-02-28T06:23:49;95868.00;;;7.61;82.67
41234;BME280;26968;42.686;23.352;2023-02-28T06:26:15;95810.44;;;7.29;82.82
41234;BME280;26968;42.686;23.352;2023-02-28T06:28:40;95780.34;;;7.14;82.25
41234;BME280;26968;42.686;23.352;2023-02-28T06:31:10;95771.00;;;7.06;82.36
41234;BME280;26968;42.686;23.352;2023-02-28T06:33:37;95761.38;;;7.00;82.60
41234;BME280;26968;42.686;23.352;2023-02-28T06:36:04;95763.78;;;7.02;82.36
41234;BME280;26968;42.686;23.352;2023-02-28T06:38:30;95819.47;;;7.33;81.84
41234;BME280;26968;42.686;23.352;2023-02-28T06:40:58;95863.94;;;7.70;82.14
41234;BME280;26968;42.686;23.352;2023-02-28T06:43:24;95835.19;;;7.57;82.10
41234;BME280;26968;42.686;23.352;2023-02-28T06:45:50;95857.75;;;7.64;81.32
41234;BME280;26968;42.686;23.352;2023-02-28T06:48:19;95854.03;;;7.49;82.36
41234;BME280;26968;42.686;23.352;2023-02-28T06:50:44;95823.47;;;7.36;82.99
41234;BME280;26968;42.686;23.352;2023-02-28T06:53:09;95794.28;;;7.26;82.45
41234;BME280;26968;42.686;23.352;2023-02-28T06:55:38;95777.91;;;7.24;81.97
41234;BME280;26968;42.686;23.352;2023-02-28T06:58:04;95872.50;;;7.77;81.28
41234;BME280;26968;42.686;23.352;2023-02-28T07:00:42;95880.59;;;7.87;81.59
41234;BME280;26968;42.686;23.352;2023-02-28T07:03:09;95858.31;;;7.66;81.87
41234;BME280;26968;42.686;23.352;2023-02-28T07:05:38;95883.94;;;7.83;81.54
41234;BME280;26968;42.686;23.352;2023-02-28T07:08:05;95880.69;;;7.92;81.54
41234;BME280;26968;42.686;23.352;2023-02-28T07:10:32;95819.59;;;7.55;81.24
41234;BME280;26968;42.686;23.352;2023-02-28T07:12:58;95775.56;;;7.27;80.97
41234;BME280;26968;42.686;23.352;2023-02-28T07:15:23;95811.59;;;7.50;80.56
41234;BME280;26968;42.686;23.352;2023-02-28T07:17:49;95875.72;;;7.96;80.50
41234;BME280;26968;42.686;23.352;2023-02-28T07:20:15;95816.00;;;7.61;80.92
41234;BME280;26968;42.686;23.352;2023-02-28T07:22:40;95805.72;;;7.48;81.16
41234;BME280;26968;42.686;23.352;2023-02-28T07:25:07;95840.31;;;7.80;81.50
41234;BME280;26968;42.686;23.352;2023-02-28T07:27:33;95779.09;;;7.33;81.07
41234;BME280;26968;42.686;23.352;2023-02-28T07:29:59;95817.50;;;7.57;81.50
41234;BME280;26968;42.686;23.352;2023-02-28T07:32:27;95756.00;;;7.23;80.98
41234;BME280;26968;42.686;23.352;2023-02-28T07:34:53;95816.94;;;7.55;81.05
41234;BME280;26968;42.686;23.352;2023-02-28T07:37:18;95776.00;;;7.36;82.62
41234;BME280;26968;42.686;23.352;2023-02-28T07:39:44;95801.66;;;7.57;81.93
41234;BME280;26968;42.686;23.352;2023-02-28T07:42:09;95877.25;;;8.08;81.91
41234;BME280;26968;42.686;23.352;2023-02-28T07:44:37;95794.97;;;7.66;81.67
41234;BME280;26968;42.686;23.352;2023-02-28T07:47:09;95877.78;;;8.27;81.15
41234;BME280;26968;42.686;23.352;2023-02-28T07:49:35;95875.72;;;8.29;81.03
41234;BME280;26968;42.686;23.352;2023-02-28T07:52:03;95812.72;;;7.88;80.85
41234;BME280;26968;42.686;23.352;2023-02-28T07:54:29;95787.44;;;7.75;80.96
41234;BME280;26968;42.686;23.352;2023-02-28T07:56:54;95785.59;;;7.75;80.22
41234;BME280;26968;42.686;23.352;2023-02-28T07:59:20;95809.44;;;7.97;80.09
41234;BME280;26968;42.686;23.352;2023-02-28T08:01:45;95794.09;;;7.78;80.26
41234;BME280;26968;42.686;23.352;2023-02-28T08:04:10;95796.41;;;7.91;80.81
41234;BME280;26968;42.686;23.352;2023-02-28T08:06:36;95800.53;;;8.03;81.15
41234;BME280;26968;42.686;23.352;2023-02-28T08:09:01;95714.19;;;7.32;80.75
41234;BME280;26968;42.686;23.352;2023-02-28T08:11:27;95848.16;;;8.25;81.20
41234;BME280;26968;42.686;23.352;2023-02-28T08:13:54;95874.66;;;8.30;81.44
41234;BME280;26968;42.686;23.352;2023-02-28T08:16:19;95870.06;;;8.37;80.50
41234;BME280;26968;42.686;23.352;2023-02-28T08:18:48;95799.56;;;8.09;80.17
41234;BME280;26968;42.686;23.352;2023-02-28T08:21:14;95866.81;;;8.52;81.42
41234;BME280;26968;42.686;23.352;2023-02-28T08:23:40;95775.44;;;8.01;81.77
41234;BME280;26968;42.686;23.352;2023-02-28T08:26:05;95785.81;;;8.07;83.17
41234;BME280;26968;42.686;23.352;2023-02-28T08:28:31;95875.41;;;8.81;83.67
41234;BME280;26968;42.686;23.352;2023-02-28T08:30:57;95871.84;;;8.92;83.41
41234;BME280;26968;42.686;23.352;2023-02-28T08:33:24;95837.00;;;8.78;82.45
41234;BME280;26968;42.686;23.352;2023-02-28T08:35:53;95771.13;;;8.33;82.64
41234;BME280;26968;42.686;23.352;2023-02-28T08:38:19;95715.75;;;8.22;82.68
41234;BME280;26968;42.686;23.352;2023-02-28T08:40:44;95818.75;;;8.99;83.32
41234;BME280;26968;42.686;23.352;2023-02-28T08:43:09;95724.50;;;8.44;82.88
41234;BME280;26968;42.686;23.352;2023-02-28T08:45:35;95774.47;;;8.89;82.91
41234;BME280;26968;42.686;23.352;2023-02-28T08:48:00;95832.91;;;9.36;83.23
41234;BME280;26968;42.686;23.352;2023-02-28T08:50:26;95850.78;;;9.78;82.28
41234;BME280;26968;42.686;23.352;2023-02-28T08:52:51;95800.28;;;9.57;82.46
41234;BME280;26968;42.686;23.352;2023-02-28T08:55:16;95792.78;;;9.49;83.20
41234;BME280;26968;42.686;23.352;2023-02-28T08:57:43;95808.19;;;9.52;84.06
41234;BME280;26968;42.686;23.352;2023-02-28T09:00:09;95785.97;;;9.53;84.05
41234;BME280;26968;42.686;23.352;2023-02-28T09:02:39;95741.81;;;9.32;84.97
41234;BME280;26968;42.686;23.352;2023-02-28T09:05:05;95862.81;;;10.22;84.15
41234;BME280;26968;42.686;23.352;2023-02-28T09:07:30;95837.16;;;9.96;83.32
41234;BME280;26968;42.686;23.352;2023-02-28T09:09:55;95778.38;;;9.67;82.96
41234;BME280;26968;42.686;23.352;2023-02-28T09:12:24;95768.63;;;9.73;84.74
41234;BME280;26968;42.686;23.352;2023-02-28T09:14:50;95800.56;;;9.93;82.42
41234;BME280;26968;42.686;23.352;2023-02-28T09:17:15;95828.03;;;10.14;82.90
41234;BME280;26968;42.686;23.352;2023-02-28T09:19:42;95796.22;;;10.14;82.04
41234;BME280;26968;42.686;23.352;2023-02-28T09:22:08;95856.72;;;10.64;81.66
41234;BME280;26968;42.686;23.352;2023-02-28T09:24:36;95784.28;;;10.16;81.67
41234;BME280;26968;42.686;23.352;2023-02-28T09:27:02;95860.72;;;10.66;80.30
41234;BME280;26968;42.686;23.352;2023-02-28T09:29:28;95676.41;;;9.69;81.36
41234;BME280;26968;42.686;23.352;2023-02-28T09:31:56;95667.16;;;9.67;81.30
41234;BME280;26968;42.686;23.352;2023-02-28T09:34:25;95825.06;;;10.47;79.61
41234;BME280;26968;42.686;23.352;2023-02-28T09:36:50;95764.91;;;10.11;78.86
41234;BME280;26968;42.686;23.352;2023-02-28T09:39:23;95851.00;;;10.82;80.20
41234;BME280;26968;42.686;23.352;2023-02-28T09:41:53;95858.19;;;10.87;80.02
41234;BME280;26968;42.686;23.352;2023-02-28T09:44:28;95848.66;;;10.96;79.58
41234;BME280;26968;42.686;23.352;2023-02-28T09:46:59;95733.03;;;10.37;79.04
41234;BME280;26968;42.686;23.352;2023-02-28T09:49:40;95743.41;;;10.49;79.13
41234;BME280;26968;42.686;23.352;2023-02-28T09:52:15;95803.59;;;11.06;77.97
41234;BME280;26968;42.686;23.352;2023-02-28T09:54:42;95791.94;;;11.17;77.93
41234;BME280;26968;42.686;23.352;2023-02-28T09:57:19;95816.16;;;11.46;75.41
41234;BME280;26968;42.686;23.352;2023-02-28T10:00:28;95783.50;;;11.40;75.46
41234;BME280;26968;42.686;23.352;2023-02-28T10:06:10;95628.31;;;10.45;74.72
41234;BME280;26968;42.686;23.352;2023-02-28T10:09:02;95792.84;;;11.88;73.79
41234;BME280;26968;42.686;23.352;2023-02-28T10:11:32;95523.47;;;10.07;71.45
41234;BME280;26968;42.686;23.352;2023-02-28T10:14:28;95283.97;;;8.60;71.21
41234;BME280;26968;42.686;23.352;2023-02-28T10:17:14;95501.75;;;10.05;72.58
41234;BME280;26968;42.686;23.352;2023-02-28T10:25:23;95704.03;;;12.10;71.50
41234;BME280;26968;42.686;23.352;2023-02-28T10:27:53;95746.69;;;12.64;69.13
41234;BME280;26968;42.686;23.352;2023-02-28T10:30:19;95808.69;;;13.34;69.45
41234;BME280;26968;42.686;23.352;2023-02-28T10:32:50;95735.19;;;12.79;67.37
41234;BME280;26968;42.686;23.352;2023-02-28T10:35:22;95815.97;;;13.62;70.17
41234;BME280;26968;42.686;23.352;2023-02-28T10:37:57;95743.75;;;13.64;66.50
41234;BME280;26968;42.686;23.352;2023-02-28T10:42:56;95704.53;;;14.22;66.20
41234;BME280;26968;42.686;23.352;2023-02-28T10:45:22;95649.88;;;14.43;64.03
41234;BME280;26968;42.686;23.352;2023-02-28T10:47:59;95673.63;;;15.25;65.11
41234;BME280;26968;42.686;23.352;2023-02-28T10:58:25;95749.53;;;16.40;59.21
41234;BME280;26968;42.686;23.352;2023-02-28T11:00:51;95770.06;;;16.58;58.22
41234;BME280;26968;42.686;23.352;2023-02-28T11:03:43;95770.56;;;16.46;57.07
41234;BME280;26968;42.686;23.352;2023-02-28T11:08:51;95745.97;;;16.44;56.13
41234;BME280;26968;42.686;23.352;2023-02-28T11:11:17;95709.16;;;16.23;55.84
41234;BME280;26968;42.686;23.352;2023-02-28T11:13:45;95626.66;;;15.37;54.82
41234;BME280;26968;42.686;23.352;2023-02-28T11:16:13;95767.09;;;16.59;56.45
41234;BME280;26968;42.686;23.352;2023-02-28T11:18:43;95756.66;;;16.17;55.85
41234;BME280;26968;42.686;23.352;2023-02-28T11:21:26;95756.38;;;16.32;55.35
41234;BME280;26968;42.686;23.352;2023-02-28T11:23:55;95749.59;;;16.21;54.54
41234;BME280;26968;42.686;23.352;2023-02-28T11:26:47;95357.28;;;13.02;55.62
41234;BME280;26968;42.686;23.352;2023-02-28T11:29:25;95577.84;;;14.81;55.82
41234;BME280;26968;42.686;23.352;2023-02-28T11:34:30;95741.81;;;15.92;56.55
41234;BME280;26968;42.686;23.352;2023-02-28T11:36:59;95651.59;;;15.14;55.11
41234;BME280;26968;42.686;23.352;2023-02-28T11:39:26;95699.59;;;15.38;56.17
41234;BME280;26968;42.686;23.352;2023-02-28T11:52:55;95673.97;;;14.81;57.86
41234;BME280;26968;42.686;23.352;2023-02-28T11:55:39;95692.31;;;14.87;58.29
41234;BME280;26968;42.686;23.352;2023-02-28T12:12:34;95735.78;;;15.68;55.87
41234;BME280;26968;42.686;23.352;2023-02-28T12:17:55;95668.19;;;15.11;55.44
41234;BME280;26968;42.686;23.352;2023-02-28T12:21:04;95674.19;;;14.84;56.36
41234;BME280;26968;42.686;23.352;2023-02-28T12:26:37;95726.94;;;15.49;56.46
41234;BME280;26968;42.686;23.352;2023-02-28T12:29:29;95696.78;;;15.29;56.44
41234;BME280;26968;42.686;23.352;2023-02-28T12:31:59;95730.41;;;15.49;56.33
41234;BME280;26968;42.686;23.352;2023-02-28T12:34:39;95726.84;;;15.59;56.15
41234;BME280;26968;42.686;23.352;2023-02-28T12:37:15;95698.84;;;15.51;55.33
41234;BME280;26968;42.686;23.352;2023-02-28T12:39:46;95665.19;;;14.99;54.96
41234;BME280;26968;42.686;23.352;2023-02-28T12:47:40;95596.31;;;14.16;56.20
41234;BME280;26968;42.686;23.352;2023-02-28T12:50:09;95633.22;;;14.09;57.08
41234;BME280;26968;42.686;23.352;2023-02-28T13:00:35;95710.84;;;14.31;58.48
41234;BME280;26968;42.686;23.352;2023-02-28T13:03:32;95714.19;;;14.18;58.20
41234;BME280;26968;42.686;23.352;2023-02-28T13:09:08;95710.72;;;13.88;58.89
41234;BME280;26968;42.686;23.352;2023-02-28T13:11:51;95634.47;;;13.64;59.14
41234;BME280;26968;42.686;23.352;2023-02-28T13:14:30;95709.34;;;14.20;58.86
41234;BME280;26968;42.686;23.352;2023-02-28T13:19:33;95700.00;;;14.22;57.67
41234;BME280;26968;42.686;23.352;2023-02-28T13:22:00;95710.84;;;14.31;57.06
41234;BME280;26968;42.686;23.352;2023-02-28T13:24:50;95705.56;;;14.02;59.13
41234;BME280;26968;42.686;23.352;2023-02-28T13:27:32;95700.41;;;14.11;59.44
41234;BME280;26968;42.686;23.352;2023-02-28T13:29:58;95657.72;;;13.87;58.80
41234;BME280;26968;42.686;23.352;2023-02-28T13:32:35;95602.84;;;13.57;58.31
41234;BME280;26968;42.686;23.352;2023-02-28T13:37:33;95656.94;;;13.58;59.30
41234;BME280;26968;42.686;23.352;2023-02-28T13:40:31;95706.06;;;13.75;59.44
41234;BME280;26968;42.686;23.352;2023-02-28T13:43:02;95658.34;;;13.45;59.79
41234;BME280;26968;42.686;23.352;2023-02-28T13:45:28;95698.84;;;14.05;58.93
41234;BME280;26968;42.686;23.352;2023-02-28T13:48:03;95584.56;;;13.11;58.91
41234;BME280;26968;42.686;23.352;2023-02-28T13:50:34;95653.59;;;13.42;59.64
41234;BME280;26968;42.686;23.352;2023-02-28T13:55:48;95626.88;;;13.18;59.71
41234;BME280;26968;42.686;23.352;2023-02-28T14:01:25;95545.38;;;12.49;59.62
41234;BME280;26968;42.686;23.352;2023-02-28T14:04:00;95689.78;;;13.43;59.92
41234;BME280;26968;42.686;23.352;2023-02-28T14:06:38;95692.75;;;13.41;60.09
41234;BME280;26968;42.686;23.352;2023-02-28T14:11:39;95622.59;;;12.78;59.50
41234;BME280;26968;42.686;23.352;2023-02-28T14:14:07;95484.41;;;11.54;60.44
41234;BME280;26968;42.686;23.352;2023-02-28T14:16:46;95693.94;;;12.76;61.41
41234;BME280;26968;42.686;23.352;2023-02-28T14:19:14;95671.16;;;12.55;61.30
41234;BME280;26968;42.686;23.352;2023-02-28T14:27:24;95698.13;;;12.33;63.45
41234;BME280;26968;42.686;23.352;2023-02-28T14:30:11;95695.78;;;12.16;64.22
41234;BME280;26968;42.686;23.352;2023-02-28T14:33:08;95695.50;;;12.18;63.96
41234;BME280;26968;42.686;23.352;2023-02-28T14:38:13;95696.34;;;12.03;65.30
41234;BME280;26968;42.686;23.352;2023-02-28T14:40:40;95701.41;;;12.05;65.03
41234;BME280;26968;42.686;23.352;2023-02-28T14:43:19;95593.63;;;11.33;65.03
41234;BME280;26968;42.686;23.352;2023-02-28T14:45:49;95645.63;;;11.54;65.15
41234;BME280;26968;42.686;23.352;2023-02-28T14:48:16;95581.94;;;11.08;66.09
41234;BME280;26968;42.686;23.352;2023-02-28T14:50:49;95600.53;;;11.23;65.39
41234;BME280;26968;42.686;23.352;2023-02-28T14:53:18;95699.81;;;11.83;65.75
41234;BME280;26968;42.686;23.352;2023-02-28T14:55:46;95593.34;;;10.99;66.51
41234;BME280;26968;42.686;23.352;2023-02-28T14:58:27;95661.59;;;11.44;66.41
41234;BME280;26968;42.686;23.352;2023-02-28T15:00:57;95709.13;;;11.76;66.47
41234;BME280;26968;42.686;23.352;2023-02-28T15:03:37;95689.47;;;11.67;66.03
41234;BME280;26968;42.686;23.352;2023-02-28T15:06:15;95700.91;;;11.67;66.68
41234;BME280;26968;42.686;23.352;2023-02-28T15:08:41;95592.81;;;10.92;66.97
41234;BME280;26968;42.686;23.352;2023-02-28T15:11:18;95553.03;;;10.71;66.95
41234;BME280;26968;42.686;23.352;2023-02-28T15:13:54;95702.75;;;11.51;67.07
41234;BME280;26968;42.686;23.352;2023-02-28T15:16:37;95702.75;;;11.46;66.79
41234;BME280;26968;42.686;23.352;2023-02-28T15:19:11;95701.94;;;11.46;66.93
41234;BME280;26968;42.686;23.352;2023-02-28T15:21:42;95627.31;;;10.92;66.75
41234;BME280;26968;42.686;23.352;2023-02-28T15:24:16;95647.00;;;11.06;67.10
41234;BME280;26968;42.686;23.352;2023-02-28T15:26:53;95705.94;;;11.33;67.94